createdAt,value
2018-12-30T00:02:02.754Z,5.33
2018-12-30T00:04:35.432Z,4.77
2018-12-30T00:07:09.711Z,5.10
2018-12-30T00:09:42.415Z,4.93
2018-12-30T00:12:08.171Z,4.80
2018-12-30T00:14:38.583Z,4.80
2018-12-30T00:17:11.554Z,4.03
2018-12-30T00:19:45.166Z,4.00
2018-12-30T00:22:23.368Z,4.87
2018-12-30T00:24:52.795Z,5.63
2018-12-30T00:27:21.225Z,4.77
2018-12-30T00:29:50.007Z,4.17
2018-12-30T00:32:20.471Z,5.00
2018-12-30T00:34:55.219Z,4.70
2018-12-30T00:37:27.556Z,4.17
2018-12-30T00:39:57.287Z,4.67
2018-12-30T00:42:25.813Z,5.62
2018-12-30T00:44:55.657Z,5.00
2018-12-30T00:47:27.850Z,4.63
2018-12-30T00:49:56.308Z,4.80
2018-12-30T00:52:24.811Z,4.90
2018-12-30T00:54:55.926Z,4.00
2018-12-30T00:57:30.697Z,4.33
2018-12-30T01:00:03.326Z,5.33
2018-12-30T01:02:35.293Z,6.77
2018-12-30T01:05:01.996Z,5.47
2018-12-30T01:07:33.294Z,5.47
2018-12-30T01:10:07.542Z,5.53
2018-12-30T01:12:40.469Z,4.23
2018-12-30T01:15:13.220Z,3.60
2018-12-30T01:17:48.982Z,4.60
2018-12-30T01:20:22.079Z,5.40
2018-12-30T01:22:54.310Z,3.40
2018-12-30T01:25:33.283Z,4.37
2018-12-30T01:27:52.977Z,6.00
2018-12-30T01:30:22.957Z,4.13
2018-12-30T01:32:56.572Z,4.33
2018-12-30T01:35:30.874Z,4.40
2018-12-30T01:38:04.820Z,3.83
2018-12-30T01:40:37.657Z,4.23
2018-12-30T01:43:13.315Z,4.83
2018-12-30T01:45:45.500Z,5.03
2018-12-30T01:48:19.046Z,4.10
2018-12-30T01:50:52.980Z,5.50
2018-12-30T01:53:22.739Z,5.67
2018-12-30T01:55:51.546Z,4.50
2018-12-30T01:58:21.666Z,11.10
2018-12-30T02:00:54.377Z,4.37
2018-12-30T02:03:27.388Z,4.90
2018-12-30T02:05:55.796Z,4.83
2018-12-30T02:08:24.292Z,3.92
2018-12-30T02:10:56.026Z,5.20
2018-12-30T02:13:28.500Z,5.17
2018-12-30T02:15:57.098Z,4.55
2018-12-30T02:18:25.767Z,4.93
2018-12-30T02:20:57.369Z,4.47
2018-12-30T02:23:30.776Z,4.20
2018-12-30T02:26:03.173Z,3.80
2018-12-30T02:28:31.612Z,3.93
2018-12-30T02:31:01.740Z,4.73
2018-12-30T02:33:33.748Z,5.00
2018-12-30T02:36:05.336Z,4.27
2018-12-30T02:38:38.684Z,4.97
2018-12-30T02:41:11.940Z,5.00
2018-12-30T02:43:41.338Z,4.50
2018-12-30T02:46:10.340Z,4.43
2018-12-30T02:48:41.482Z,6.67
2018-12-30T02:51:15.465Z,6.33
2018-12-30T02:53:49.322Z,4.55
2018-12-30T02:56:22.558Z,3.73
2018-12-30T02:58:56.406Z,4.67
2018-12-30T03:01:30.417Z,5.10
2018-12-30T03:04:03.265Z,4.90
2018-12-30T03:06:32.269Z,5.10
2018-12-30T03:09:01.393Z,4.80
2018-12-30T03:11:31.586Z,5.80
2018-12-30T03:14:03.802Z,6.13
2018-12-30T03:16:32.832Z,5.80
2018-12-30T03:19:02.896Z,3.97
2018-12-30T03:21:33.023Z,6.70
2018-12-30T03:24:06.243Z,4.57
2018-12-30T03:26:40.077Z,5.00
2018-12-30T03:29:13.073Z,4.77
2018-12-30T03:31:46.240Z,4.10
2018-12-30T03:34:14.684Z,4.70
2018-12-30T03:36:43.111Z,3.80
2018-12-30T03:39:15.594Z,4.90
2018-12-30T03:41:47.471Z,10.70
2018-12-30T03:44:16.939Z,7.03
2018-12-30T03:46:45.641Z,4.20
2018-12-30T03:49:16.370Z,5.17
2018-12-30T03:51:47.585Z,5.20
2018-12-30T03:54:16.058Z,4.30
2018-12-30T03:56:44.578Z,4.80
2018-12-30T03:59:16.457Z,5.80
2018-12-30T04:01:48.750Z,4.53
2018-12-30T04:04:27.703Z,5.30
2018-12-30T04:06:47.414Z,3.70
2018-12-30T04:09:18.729Z,4.40
2018-12-30T04:11:51.091Z,6.33
2018-12-30T04:14:25.001Z,4.33
2018-12-30T04:16:57.604Z,4.50
2018-12-30T04:19:30.850Z,4.47
2018-12-30T04:21:56.203Z,10.43
2018-12-30T04:24:26.291Z,7.50
2018-12-30T04:26:59.066Z,7.07
2018-12-30T04:29:32.085Z,8.30
2018-12-30T04:32:00.492Z,8.07
2018-12-30T04:34:28.934Z,8.27
2018-12-30T04:37:00.214Z,8.60
2018-12-30T04:39:33.398Z,10.03
2018-12-30T04:42:06.909Z,9.70
2018-12-30T04:44:37.028Z,9.47
2018-12-30T04:47:05.488Z,11.50
2018-12-30T04:49:36.449Z,7.70
2018-12-30T04:52:10.710Z,7.83
2018-12-30T04:54:45.171Z,17.03
2018-12-30T04:57:18.821Z,5.77
2018-12-30T04:59:51.052Z,4.53
2018-12-30T05:02:23.644Z,6.50
2018-12-30T05:04:53.332Z,7.50
2018-12-30T05:07:21.778Z,6.80
2018-12-30T05:09:52.389Z,7.57
2018-12-30T05:12:26.466Z,7.40
2018-12-30T05:14:59.101Z,7.93
2018-12-30T05:17:28.227Z,7.30
2018-12-30T05:19:56.999Z,8.07
2018-12-30T05:22:33.873Z,7.30
2018-12-30T05:24:59.696Z,8.35
2018-12-30T05:27:32.899Z,9.68
2018-12-30T05:30:12.019Z,5.73
2018-12-30T05:32:32.393Z,6.33
2018-12-30T05:35:01.397Z,8.30
2018-12-30T05:37:34.087Z,8.10
2018-12-30T05:40:06.123Z,7.43
2018-12-30T05:42:34.867Z,6.47
2018-12-30T05:45:03.304Z,6.90
2018-12-30T05:47:33.698Z,7.13
2018-12-30T05:50:02.118Z,7.93
2018-12-30T05:52:30.564Z,10.43
2018-12-30T05:55:03.064Z,6.80
2018-12-30T05:57:36.024Z,7.70
2018-12-30T06:00:09.908Z,7.83
2018-12-30T06:02:42.950Z,5.43
2018-12-30T06:05:11.373Z,6.63
2018-12-30T06:07:41.375Z,4.63
2018-12-30T06:10:11.848Z,6.35
2018-12-30T06:12:45.222Z,5.42
2018-12-30T06:15:17.648Z,4.53
2018-12-30T06:17:46.055Z,4.83
2018-12-30T06:20:15.495Z,5.53
2018-12-30T06:22:49.608Z,5.93
2018-12-30T06:25:21.172Z,5.55
2018-12-30T06:27:53.913Z,8.30
2018-12-30T06:30:26.407Z,6.70
2018-12-30T06:33:05.226Z,5.57
2018-12-30T06:35:25.061Z,5.10
2018-12-30T06:37:55.227Z,6.37
2018-12-30T06:40:27.805Z,5.73
2018-12-30T06:43:01.409Z,4.30
2018-12-30T06:45:32.585Z,5.87
2018-12-30T06:48:01.797Z,5.13
2018-12-30T06:50:30.240Z,5.17
2018-12-30T06:53:01.689Z,9.77
2018-12-30T06:55:30.348Z,10.07
2018-12-30T06:58:00.406Z,6.30
2018-12-30T07:00:29.653Z,5.13
2018-12-30T07:02:59.948Z,4.80
2018-12-30T07:05:28.467Z,4.40
2018-12-30T07:07:57.029Z,6.23
2018-12-30T07:10:29.769Z,5.70
2018-12-30T07:12:58.901Z,4.63
2018-12-30T07:15:27.292Z,4.55
2018-12-30T07:17:58.479Z,5.00
2018-12-30T07:20:31.380Z,6.50
2018-12-30T07:23:06.242Z,7.37
2018-12-30T07:25:37.852Z,5.17
2018-12-30T07:28:08.031Z,8.00
2018-12-30T07:30:36.582Z,5.83
2018-12-30T07:33:06.547Z,5.80
2018-12-30T07:35:38.688Z,4.30
2018-12-30T07:38:08.101Z,5.10
2018-12-30T07:40:36.723Z,4.83
2018-12-30T07:43:06.774Z,5.23
2018-12-30T07:45:39.276Z,5.67
2018-12-30T07:48:11.010Z,4.20
2018-12-30T07:50:37.900Z,5.50
2018-12-30T07:53:13.733Z,6.47
2018-12-30T07:55:42.087Z,5.50
2018-12-30T07:58:12.728Z,4.97
2018-12-30T08:00:43.884Z,7.00
2018-12-30T08:03:12.358Z,5.80
2018-12-30T08:05:44.328Z,6.23
2018-12-30T08:08:17.094Z,4.37
2018-12-30T08:10:49.667Z,4.67
2018-12-30T08:13:20.885Z,5.87
2018-12-30T08:15:49.445Z,10.80
2018-12-30T08:18:17.912Z,7.80
2018-12-30T08:20:49.369Z,5.27
2018-12-30T08:23:21.370Z,4.00
2018-12-30T08:25:48.097Z,4.62
2018-12-30T08:28:25.074Z,4.22
2018-12-30T08:30:51.482Z,4.63
2018-12-30T08:33:26.447Z,4.20
2018-12-30T08:35:58.271Z,5.37
2018-12-30T08:38:28.031Z,5.87
2018-12-30T08:40:56.586Z,5.57
2018-12-30T08:43:26.051Z,6.73
2018-12-30T08:45:59.141Z,6.40
2018-12-30T08:48:31.558Z,7.30
2018-12-30T08:51:01.152Z,8.67
2018-12-30T08:53:29.767Z,7.83
2018-12-30T08:56:02.357Z,9.63
2018-12-30T08:58:34.801Z,7.27
2018-12-30T09:01:07.752Z,6.80
2018-12-30T09:03:39.156Z,6.42
2018-12-30T09:06:06.411Z,5.27
2018-12-30T09:08:36.180Z,5.73
2018-12-30T09:11:09.099Z,4.87
2018-12-30T09:13:38.659Z,3.93
2018-12-30T09:16:07.757Z,4.70
2018-12-30T09:18:37.667Z,4.90
2018-12-30T09:21:11.164Z,4.30
2018-12-30T09:23:43.653Z,3.90
2018-12-30T09:26:12.131Z,4.50
2018-12-30T09:28:41.145Z,5.20
2018-12-30T09:31:12.463Z,5.50
2018-12-30T09:33:44.301Z,13.77
2018-12-30T09:36:12.991Z,4.57
2018-12-30T09:38:42.139Z,4.73
2018-12-30T09:41:13.835Z,5.40
2018-12-30T09:43:44.880Z,4.70
2018-12-30T09:46:15.239Z,4.83
2018-12-30T09:48:43.444Z,5.30
2018-12-30T09:51:13.807Z,5.13
2018-12-30T09:53:46.931Z,4.90
2018-12-30T09:56:17.989Z,4.27
2018-12-30T09:58:46.717Z,4.33
2018-12-30T10:01:15.194Z,5.10
2018-12-30T10:03:48.015Z,5.80
2018-12-30T10:06:19.535Z,5.08
2018-12-30T10:08:47.836Z,5.30
2018-12-30T10:11:16.897Z,8.90
2018-12-30T10:13:47.680Z,8.00
2018-12-30T10:16:23.229Z,6.53
2018-12-30T10:18:54.685Z,6.12
2018-12-30T10:21:23.186Z,13.60
2018-12-30T10:23:53.009Z,11.00
2018-12-30T10:26:23.836Z,7.03
2018-12-30T10:28:55.407Z,6.20
2018-12-30T10:31:24.106Z,5.93
2018-12-30T10:33:52.750Z,4.80
2018-12-30T10:36:24.450Z,4.67
2018-12-30T10:38:56.619Z,5.20
2018-12-30T10:41:25.302Z,4.70
2018-12-30T10:43:53.985Z,4.83
2018-12-30T10:46:26.675Z,4.00
2018-12-30T10:48:58.331Z,5.47
2018-12-30T10:51:31.900Z,4.63
2018-12-30T10:54:01.586Z,5.47
2018-12-30T10:56:30.025Z,5.33
2018-12-30T10:59:00.059Z,5.33
2018-12-30T11:01:33.024Z,4.50
2018-12-30T11:04:05.603Z,4.43
2018-12-30T11:06:34.299Z,5.77
2018-12-30T11:09:02.989Z,5.07
2018-12-30T11:11:34.901Z,5.20
2018-12-30T11:14:07.260Z,4.70
2018-12-30T11:16:37.045Z,11.50
2018-12-30T11:19:05.550Z,9.40
2018-12-30T11:21:36.311Z,4.70
2018-12-30T11:24:08.992Z,5.70
2018-12-30T11:26:39.327Z,6.17
2018-12-30T11:29:08.019Z,7.00
2018-12-30T11:31:36.687Z,6.20
2018-12-30T11:34:08.130Z,5.97
2018-12-30T11:36:36.619Z,7.10
2018-12-30T11:39:06.965Z,7.10
2018-12-30T11:41:36.735Z,6.10
2018-12-30T11:44:09.442Z,7.10
2018-12-30T11:46:43.643Z,6.60
2018-12-30T11:49:16.941Z,6.43
2018-12-30T11:51:46.933Z,7.70
2018-12-30T11:54:16.513Z,7.33
2018-12-30T11:56:45.879Z,9.03
2018-12-30T11:59:17.744Z,7.47
2018-12-30T12:01:47.791Z,8.20
2018-12-30T12:04:16.427Z,7.87
2018-12-30T12:06:47.490Z,8.60
2018-12-30T12:09:19.375Z,6.90
2018-12-30T12:11:52.754Z,7.30
2018-12-30T12:14:28.493Z,8.63
2018-12-30T12:16:54.707Z,7.97
2018-12-30T12:19:23.334Z,6.33
2018-12-30T12:21:57.170Z,7.53
2018-12-30T12:24:28.755Z,7.80
2018-12-30T12:27:01.993Z,9.53
2018-12-30T12:29:35.020Z,22.62
2018-12-30T12:32:03.416Z,7.20
2018-12-30T12:34:32.130Z,6.17
2018-12-30T12:37:05.266Z,6.63
2018-12-30T12:39:39.036Z,7.62
2018-12-30T12:42:09.826Z,6.70
2018-12-30T12:44:39.156Z,7.70
2018-12-30T12:47:07.690Z,6.63
2018-12-30T12:49:38.606Z,6.13
2018-12-30T12:52:12.100Z,6.07
2018-12-30T12:54:44.940Z,5.73
2018-12-30T12:57:15.412Z,7.80
2018-12-30T12:59:45.458Z,6.27
2018-12-30T13:02:13.881Z,5.57
2018-12-30T13:04:46.980Z,5.53
2018-12-30T13:07:21.256Z,5.10
2018-12-30T13:09:53.839Z,6.63
2018-12-30T13:12:25.642Z,5.85
2018-12-30T13:14:53.830Z,6.50
2018-12-30T13:17:22.442Z,6.70
2018-12-30T13:19:55.537Z,7.40
2018-12-30T13:22:30.735Z,6.60
2018-12-30T13:25:02.021Z,8.00
2018-12-30T13:27:30.443Z,7.23
2018-12-30T13:30:00.451Z,7.70
2018-12-30T13:32:31.107Z,8.28
2018-12-30T13:35:03.639Z,8.20
2018-12-30T13:37:35.144Z,8.27
2018-12-30T13:40:04.463Z,8.07
2018-12-30T13:42:32.912Z,8.20
2018-12-30T13:45:06.509Z,8.53
2018-12-30T13:47:39.952Z,8.13
2018-12-30T13:50:12.627Z,8.63
2018-12-30T13:52:50.610Z,8.80
2018-12-30T13:55:21.438Z,10.00
2018-12-30T13:57:54.340Z,9.40
2018-12-30T14:00:28.036Z,8.53
2018-12-30T14:02:59.857Z,9.80
2018-12-30T14:05:26.660Z,8.80
2018-12-30T14:07:56.562Z,8.70
2018-12-30T14:10:30.598Z,8.87
2018-12-30T14:13:02.973Z,9.50
2018-12-30T14:15:32.756Z,10.40
2018-12-30T14:18:01.615Z,45.77
2018-12-30T14:20:31.592Z,12.00
2018-12-30T14:23:05.542Z,8.00
2018-12-30T14:25:37.740Z,8.47
2018-12-30T14:28:12.424Z,8.53
2018-12-30T14:30:48.144Z,8.70
2018-12-30T14:33:20.809Z,10.57
2018-12-30T14:35:54.856Z,9.07
2018-12-30T14:38:27.642Z,43.70
2018-12-30T14:40:57.632Z,10.03
2018-12-30T14:43:26.100Z,8.28
2018-12-30T14:45:55.542Z,9.80
2018-12-30T14:48:29.701Z,10.13
2018-12-30T14:51:02.369Z,9.00
2018-12-30T14:53:32.313Z,10.08
2018-12-30T14:56:00.761Z,9.30
2018-12-30T14:58:30.935Z,11.53
2018-12-30T15:01:04.354Z,10.90
2018-12-30T15:03:36.976Z,10.70
2018-12-30T15:06:06.685Z,13.63
2018-12-30T15:08:35.115Z,11.20
2018-12-30T15:11:07.662Z,10.53
2018-12-30T15:13:38.606Z,8.67
2018-12-30T15:16:11.624Z,10.37
2018-12-30T15:18:45.406Z,11.43
2018-12-30T15:21:13.857Z,10.63
2018-12-30T15:23:43.814Z,9.10
2018-12-30T15:26:13.789Z,10.17
2018-12-30T15:28:47.180Z,11.13
2018-12-30T15:31:23.903Z,9.73
2018-12-30T15:33:55.856Z,9.57
2018-12-30T15:36:28.464Z,9.47
2018-12-30T15:38:58.161Z,10.37
2018-12-30T15:41:26.711Z,9.30
2018-12-30T15:43:56.213Z,10.57
2018-12-30T15:46:28.841Z,23.97
2018-12-30T15:48:57.241Z,19.00
2018-12-30T15:51:25.702Z,10.57
2018-12-30T15:53:59.893Z,12.10
2018-12-30T15:56:31.962Z,10.97
2018-12-30T15:59:04.398Z,11.70
2018-12-30T16:01:37.683Z,13.90
2018-12-30T16:04:06.112Z,12.00
2018-12-30T16:06:36.048Z,10.37
2018-12-30T16:09:07.687Z,11.63
2018-12-30T16:11:41.895Z,28.40
2018-12-30T16:14:15.000Z,11.93
2018-12-30T16:16:47.322Z,11.50
2018-12-30T16:19:20.855Z,10.77
2018-12-30T16:21:52.366Z,11.30
2018-12-30T16:24:20.907Z,8.87
2018-12-30T16:26:49.456Z,8.87
2018-12-30T16:29:23.299Z,8.90
2018-12-30T16:31:55.716Z,9.13
2018-12-30T16:34:29.110Z,7.33
2018-12-30T16:36:59.222Z,14.47
2018-12-30T16:39:27.787Z,9.47
2018-12-30T16:41:58.043Z,6.30
2018-12-30T16:44:30.803Z,9.00
2018-12-30T16:47:03.979Z,6.60
2018-12-30T16:49:36.977Z,6.60
2018-12-30T16:52:02.693Z,6.43
2018-12-30T16:54:32.830Z,7.30
2018-12-30T16:57:05.380Z,5.70
2018-12-30T16:59:38.951Z,5.80
2018-12-30T17:02:08.675Z,32.60
2018-12-30T17:04:37.663Z,23.90
2018-12-30T17:07:07.010Z,8.57
2018-12-30T17:09:39.621Z,8.40
2018-12-30T17:12:11.827Z,4.87
2018-12-30T17:14:38.249Z,5.13
2018-12-30T17:17:08.428Z,5.93
2018-12-30T17:19:40.777Z,6.63
2018-12-30T17:22:16.886Z,18.67
2018-12-30T17:24:50.553Z,16.45
2018-12-30T17:27:25.625Z,17.25
2018-12-30T17:29:57.865Z,16.00
2018-12-30T17:32:30.533Z,16.80
2018-12-30T17:35:00.295Z,16.43
2018-12-30T17:37:28.761Z,12.97
2018-12-30T17:39:59.424Z,7.50
2018-12-30T17:42:32.018Z,29.73
2018-12-30T17:45:10.771Z,8.20
2018-12-30T17:47:40.255Z,10.63
2018-12-30T17:50:10.618Z,11.50
2018-12-30T17:52:39.252Z,12.47
2018-12-30T17:55:07.992Z,11.87
2018-12-30T17:57:41.994Z,21.52
2018-12-30T18:00:14.721Z,17.83
2018-12-30T18:02:48.394Z,13.10
2018-12-30T18:05:22.026Z,12.77
2018-12-30T18:07:58.784Z,13.70
2018-12-30T18:10:20.617Z,12.00
2018-12-30T18:12:50.170Z,12.47
2018-12-30T18:15:23.275Z,15.53
2018-12-30T18:17:55.198Z,14.03
2018-12-30T18:20:23.964Z,15.10
2018-12-30T18:22:52.423Z,15.10
2018-12-30T18:25:24.392Z,14.80
2018-12-30T18:28:05.014Z,15.07
2018-12-30T18:30:34.160Z,19.62
2018-12-30T18:33:05.222Z,16.27
2018-12-30T18:35:33.710Z,17.07
2018-12-30T18:38:02.191Z,17.13
2018-12-30T18:40:33.372Z,16.30
2018-12-30T18:43:10.528Z,18.13
2018-12-30T18:45:43.096Z,17.67
2018-12-30T18:48:15.222Z,22.83
2018-12-30T18:50:45.787Z,29.57
2018-12-30T18:53:14.003Z,21.60
2018-12-30T18:55:44.039Z,19.10
2018-12-30T18:58:16.028Z,18.43
2018-12-30T19:00:44.522Z,20.23
2018-12-30T19:03:13.503Z,20.63
2018-12-30T19:05:44.314Z,18.90
2018-12-30T19:08:17.107Z,19.27
2018-12-30T19:10:46.009Z,19.37
2018-12-30T19:13:14.789Z,21.47
2018-12-30T19:15:46.467Z,20.50
2018-12-30T19:18:19.205Z,20.53
2018-12-30T19:20:53.766Z,21.20
2018-12-30T19:23:25.833Z,20.00
2018-12-30T19:26:01.027Z,24.80
2018-12-30T19:28:24.498Z,20.40
2018-12-30T19:30:54.607Z,19.40
2018-12-30T19:33:27.493Z,18.65
2018-12-30T19:36:00.849Z,21.60
2018-12-30T19:38:30.771Z,22.00
2018-12-30T19:40:59.543Z,20.97
2018-12-30T19:43:30.061Z,22.58
2018-12-30T19:46:01.525Z,21.57
2018-12-30T19:48:31.782Z,21.90
2018-12-30T19:51:00.187Z,21.40
2018-12-30T19:53:29.855Z,21.73
2018-12-30T19:56:02.529Z,18.73
2018-12-30T19:58:39.023Z,18.37
2018-12-30T20:01:01.259Z,23.43
2018-12-30T20:03:31.235Z,18.45
2018-12-30T20:06:03.974Z,19.37
2018-12-30T20:08:40.369Z,25.30
2018-12-30T20:11:12.011Z,17.87
2018-12-30T20:13:45.045Z,26.55
2018-12-30T20:16:15.447Z,31.90
2018-12-30T20:18:43.733Z,24.50
2018-12-30T20:21:13.915Z,21.17
2018-12-30T20:23:46.713Z,19.25
2018-12-30T20:26:21.864Z,18.45
2018-12-30T20:28:48.130Z,18.47
2018-12-30T20:31:16.711Z,19.60
2018-12-30T20:33:47.470Z,19.30
2018-12-30T20:36:20.737Z,20.07
2018-12-30T20:38:51.574Z,18.93
2018-12-30T20:41:20.389Z,19.73
2018-12-30T20:43:49.651Z,21.37
2018-12-30T20:46:22.305Z,20.73
2018-12-30T20:48:55.663Z,20.40
2018-12-30T20:51:27.609Z,16.70
2018-12-30T20:53:54.317Z,21.33
2018-12-30T20:56:24.080Z,19.10
2018-12-30T20:58:58.035Z,20.40
2018-12-30T21:01:31.217Z,22.23
2018-12-30T21:04:04.263Z,30.13
2018-12-30T21:06:32.758Z,24.27
2018-12-30T21:09:01.294Z,23.67
2018-12-30T21:11:33.804Z,21.60
2018-12-30T21:14:06.418Z,18.50
2018-12-30T21:16:39.823Z,19.70
2018-12-30T21:19:16.321Z,17.60
2018-12-30T21:21:49.094Z,18.37
2018-12-30T21:24:22.057Z,17.55
2018-12-30T21:26:56.828Z,17.62
2018-12-30T21:29:29.443Z,18.53
2018-12-30T21:31:59.156Z,19.83
2018-12-30T21:34:27.606Z,18.27
2018-12-30T21:36:58.215Z,19.53
2018-12-30T21:39:30.608Z,18.63
2018-12-30T21:42:04.497Z,19.77
2018-12-30T21:44:41.878Z,19.40
2018-12-30T21:47:14.903Z,20.00
2018-12-30T21:49:47.628Z,19.47
2018-12-30T21:52:20.345Z,19.37
2018-12-30T21:54:50.199Z,18.93
2018-12-30T21:57:18.726Z,18.95
2018-12-30T21:59:49.421Z,18.80
2018-12-30T22:02:22.371Z,17.80
2018-12-30T22:04:55.015Z,18.90
2018-12-30T22:07:29.275Z,19.12
2018-12-30T22:09:53.698Z,17.00
2018-12-30T22:12:24.115Z,16.40
2018-12-30T22:14:56.875Z,15.80
2018-12-30T22:17:29.978Z,18.57
2018-12-30T22:19:58.916Z,18.70
2018-12-30T22:22:28.748Z,17.87
2018-12-30T22:24:58.792Z,18.00
2018-12-30T22:27:31.169Z,17.93
2018-12-30T22:30:04.170Z,17.17
2018-12-30T22:32:32.609Z,20.63
2018-12-30T22:35:01.045Z,20.60
2018-12-30T22:37:32.759Z,19.17
2018-12-30T22:40:02.878Z,18.90
2018-12-30T22:42:32.965Z,20.60
2018-12-30T22:45:01.631Z,18.40
2018-12-30T22:47:34.013Z,20.20
2018-12-30T22:50:05.701Z,19.00
2018-12-30T22:52:34.114Z,20.47
2018-12-30T22:55:02.652Z,19.03
2018-12-30T22:57:34.259Z,19.70
2018-12-30T23:00:06.871Z,20.68
2018-12-30T23:02:36.731Z,20.10
2018-12-30T23:05:05.435Z,20.60
2018-12-30T23:07:35.547Z,20.00
2018-12-30T23:10:08.457Z,19.57
2018-12-30T23:12:47.506Z,21.37
2018-12-30T23:15:17.545Z,19.03
2018-12-30T23:17:50.155Z,18.80
2018-12-30T23:20:20.282Z,20.30
2018-12-30T23:22:48.737Z,20.80
2018-12-30T23:25:18.861Z,19.17
2018-12-30T23:27:51.251Z,19.73
2018-12-30T23:30:21.305Z,21.40
2018-12-30T23:32:49.841Z,20.50
2018-12-30T23:35:19.590Z,20.40
2018-12-30T23:37:51.674Z,21.90
2018-12-30T23:40:22.932Z,19.83
2018-12-30T23:42:51.442Z,20.60
2018-12-30T23:45:20.313Z,18.00
2018-12-30T23:47:52.126Z,19.90
2018-12-30T23:50:21.687Z,19.80
2018-12-30T23:52:50.301Z,18.30
2018-12-30T23:55:21.573Z,18.40
2018-12-30T23:57:54.625Z,17.67
